TAF Text Data
IDs:
Format:
Raw Decoded Include METAR

Data at: 1154 UTC 17 Dec 2018

KINK 171053Z AUTO 36004KT 10SM CLR 04/02 A3023 RMK AO2 SLP225 T00440017 TSNO

KINK 171120Z 1712/1812 01004KT P6SM BKN150
  FM172100 14005KT P6SM SCT200